Time;durP1;ratioP1;P1;durP2;ratioP2;P2;SDS_P1;SDS_P2;PMS_P1;PMS_P2;Temp;Humidity;BMP_temperature;BMP_pressure;BME280_temperature;BME280_humidity;BME280_pressure;Samples;Min_cycle;Max_cycle;Signal;HPM_P1;HPM_P2
2021/01/26 00:00:43;;;;;;;5.60;2.70;;;3.90;90.20;;;;;;5007979;28;20105;-57
2021/01/26 00:03:09;;;;;;;7.57;2.92;;;3.90;90.20;;;;;;5007862;28;20046;-57
2021/01/26 00:05:34;;;;;;;4.72;2.90;;;3.90;90.20;;;;;;5008807;28;20037;-56
2021/01/26 00:08:00;;;;;;;4.55;2.30;;;3.90;90.20;;;;;;5008084;28;20034;-56
2021/01/26 00:10:25;;;;;;;3.40;2.58;;;3.90;90.20;;;;;;5009116;28;20033;-58
2021/01/26 00:12:51;;;;;;;4.22;2.70;;;3.90;90.20;;;;;;5005666;28;20030;-58
2021/01/26 00:15:16;;;;;;;4.85;2.80;;;3.90;90.30;;;;;;5003108;28;20053;-56
2021/01/26 00:17:42;;;;;;;4.63;2.85;;;3.90;90.20;;;;;;5007892;28;20479;-57
2021/01/26 00:20:09;;;;;;;4.72;2.50;;;3.80;90.20;;;;;;5006786;28;20033;-56
2021/01/26 00:22:34;;;;;;;6.72;2.22;;;3.80;90.20;;;;;;5004382;28;20517;-56
2021/01/26 00:25:00;;;;;;;6.07;2.63;;;3.80;90.20;;;;;;5008884;28;20080;-56
2021/01/26 00:27:25;;;;;;;5.80;2.60;;;3.80;90.20;;;;;;5006214;28;20034;-57
2021/01/26 00:29:51;;;;;;;5.13;2.70;;;3.80;90.20;;;;;;5007268;28;20033;-57
2021/01/26 00:32:16;;;;;;;5.32;2.90;;;3.80;90.30;;;;;;5006568;28;20022;-56
2021/01/26 00:34:42;;;;;;;6.35;2.70;;;3.80;90.20;;;;;;5007551;28;20048;-56
2021/01/26 00:37:07;;;;;;;6.63;2.88;;;3.80;90.30;;;;;;5007952;28;20038;-56
2021/01/26 00:39:33;;;;;;;4.07;2.67;;;3.80;90.40;;;;;;5003350;28;20026;-57
2021/01/26 00:41:58;;;;;;;5.82;2.92;;;3.80;90.30;;;;;;4994801;28;20030;-56
2021/01/26 00:44:24;;;;;;;4.78;2.88;;;3.80;90.30;;;;;;5006386;28;20409;-57
2021/01/26 00:46:49;;;;;;;7.72;3.15;;;3.80;90.30;;;;;;5000188;28;20521;-56
2021/01/26 00:49:15;;;;;;;4.35;2.42;;;3.80;90.30;;;;;;5007045;28;20485;-56
2021/01/26 00:51:40;;;;;;;3.55;2.15;;;3.80;90.30;;;;;;5006359;28;20058;-57
2021/01/26 00:54:06;;;;;;;7.10;2.55;;;3.80;90.30;;;;;;5005875;28;20334;-57
2021/01/26 00:56:31;;;;;;;4.15;2.65;;;3.80;90.30;;;;;;5005340;28;20027;-57
2021/01/26 00:58:57;;;;;;;4.85;2.92;;;3.70;90.30;;;;;;5012281;28;20390;-56
2021/01/26 01:01:22;;;;;;;4.75;2.70;;;3.80;90.30;;;;;;5009801;28;20060;-56
2021/01/26 01:03:48;;;;;;;4.93;2.75;;;3.70;90.30;;;;;;5011008;28;20030;-57
2021/01/26 01:06:14;;;;;;;4.82;2.90;;;3.70;90.30;;;;;;5008501;28;20041;-56
2021/01/26 01:08:40;;;;;;;4.80;2.50;;;3.70;90.30;;;;;;5005559;28;20384;-56
2021/01/26 01:11:06;;;;;;;3.63;2.45;;;3.70;90.30;;;;;;5011142;28;20034;-56
2021/01/26 01:13:31;;;;;;;6.07;2.35;;;3.70;90.30;;;;;;5008193;28;20030;-56
2021/01/26 01:15:56;;;;;;;5.30;3.10;;;3.70;90.30;;;;;;5011317;28;20482;-57
2021/01/26 01:18:22;;;;;;;3.08;2.42;;;3.80;90.30;;;;;;5011378;28;20034;-56
2021/01/26 01:20:48;;;;;;;5.43;2.75;;;3.70;90.30;;;;;;5009796;28;20085;-56
2021/01/26 01:23:13;;;;;;;3.47;2.30;;;3.70;90.30;;;;;;5010620;28;20425;-56
2021/01/26 01:25:39;;;;;;;3.55;2.60;;;3.70;90.30;;;;;;5009909;28;20054;-57
2021/01/26 01:28:04;;;;;;;5.43;2.58;;;3.70;90.30;;;;;;5012244;28;20116;-56
2021/01/26 01:30:32;;;;;;;4.90;2.65;;;3.70;90.30;;;;;;5009698;28;20155;-56
2021/01/26 01:32:58;;;;;;;5.05;2.60;;;3.70;90.30;;;;;;5005228;28;20353;-57
2021/01/26 01:35:23;;;;;;;4.82;2.55;;;3.70;90.40;;;;;;5017834;28;20050;-56
2021/01/26 01:37:49;;;;;;;3.92;2.78;;;3.70;90.40;;;;;;5010599;28;20018;-57
2021/01/26 01:40:23;;;;;;;3.70;2.15;;;3.70;90.40;;;;;;5004468;28;20089;-57
2021/01/26 01:42:50;;;;;;;4.40;2.55;;;3.70;90.50;;;;;;4996113;28;20789;-57
2021/01/26 01:45:16;;;;;;;4.93;2.58;;;3.70;90.50;;;;;;5008400;28;20037;-57
2021/01/26 01:47:46;;;;;;;4.18;2.50;;;3.70;90.50;;;;;;5010658;28;20362;-57
2021/01/26 01:50:18;;;;;;;3.70;2.20;;;3.60;90.50;;;;;;5006246;28;20031;-56
2021/01/26 01:52:44;;;;;;;2.72;2.10;;;3.70;90.50;;;;;;5007683;28;20123;-56
2021/01/26 01:55:15;;;;;;;2.92;2.30;;;3.70;90.50;;;;;;5009087;28;20026;-56
2021/01/26 01:57:45;;;;;;;3.47;2.30;;;3.70;90.50;;;;;;5008798;28;20389;-56
2021/01/26 02:00:13;;;;;;;5.57;2.85;;;3.70;90.50;;;;;;5001178;28;20040;-56
2021/01/26 02:02:42;;;;;;;4.03;2.55;;;3.60;90.50;;;;;;4991609;28;20498;-56
2021/01/26 02:05:09;;;;;;;3.40;2.45;;;3.60;90.60;;;;;;5006548;28;20026;-56
2021/01/26 02:07:34;;;;;;;4.90;2.65;;;3.60;90.50;;;;;;5010131;28;20040;-56
2021/01/26 02:10:00;;;;;;;3.20;2.70;;;3.60;90.50;;;;;;5008878;28;20034;-56
2021/01/26 02:12:25;;;;;;;2.85;2.30;;;3.60;90.60;;;;;;5008722;28;20030;-57
2021/01/26 02:14:53;;;;;;;4.72;2.58;;;3.60;90.60;;;;;;5009319;28;20478;-56
2021/01/26 02:17:32;;;;;;;4.03;2.80;;;3.60;90.60;;;;;;5005229;28;20105;-56
2021/01/26 02:20:16;;;;;;;3.85;2.40;;;3.60;90.60;;;;;;5004808;28;20493;-57
2021/01/26 02:23:10;;;;;;;4.25;2.90;;;3.60;90.60;;;;;;5009453;28;20061;-56
2021/01/26 02:26:00;;;;;;;4.53;2.92;;;3.60;90.60;;;;;;5000350;28;20493;-56
2021/01/26 02:28:44;;;;;;;4.43;2.30;;;3.60;90.60;;;;;;5007264;28;20025;-57
2021/01/26 02:31:26;;;;;;;4.82;2.70;;;3.60;90.60;;;;;;5003074;28;20108;-56
2021/01/26 02:34:16;;;;;;;4.47;2.50;;;3.60;90.60;;;;;;5005688;28;20394;-56
2021/01/26 02:37:22;;;;;;;4.03;2.72;;;3.60;90.60;;;;;;5009435;28;20508;-57
2021/01/26 02:40:16;;;;;;;5.28;2.70;;;3.60;90.60;;;;;;5005921;28;20125;-56
2021/01/26 02:42:59;;;;;;;8.38;2.90;;;3.50;90.60;;;;;;5003534;28;20122;-57
2021/01/26 02:45:29;;;;;;;5.07;2.97;;;3.60;90.60;;;;;;5008714;28;20030;-56
2021/01/26 02:48:16;;;;;;;3.85;2.53;;;3.60;90.60;;;;;;5011400;28;20030;-56
2021/01/26 02:51:05;;;;;;;4.97;2.67;;;3.60;90.60;;;;;;4999922;28;20027;-56
2021/01/26 02:53:59;;;;;;;4.28;2.55;;;3.50;90.60;;;;;;5005032;28;20543;-57
2021/01/26 02:56:41;;;;;;;3.67;2.65;;;3.60;90.60;;;;;;5008798;28;20030;-56
2021/01/26 02:59:48;;;;;;;4.68;2.92;;;3.50;90.60;;;;;;5010081;28;20022;-56
2021/01/26 03:02:25;;;;;;;3.67;3.10;;;3.50;90.60;;;;;;5009201;28;20077;-57
2021/01/26 03:04:57;;;;;;;3.33;2.90;;;3.50;90.60;;;;;;4999882;28;20034;-56
2021/01/26 03:07:23;;;;;;;4.10;2.72;;;3.50;90.70;;;;;;5008389;28;20430;-57
2021/01/26 03:09:52;;;;;;;6.43;3.17;;;3.50;90.60;;;;;;5002727;28;20079;-57
2021/01/26 03:12:26;;;;;;;3.15;2.25;;;3.50;90.60;;;;;;5008674;28;20033;-56
2021/01/26 03:14:57;;;;;;;5.38;2.78;;;3.60;90.70;;;;;;5008296;28;20044;-56
2021/01/26 03:17:34;;;;;;;6.07;2.90;;;3.50;90.60;;;;;;5001453;28;20121;-56
2021/01/26 03:20:13;;;;;;;4.07;2.85;;;3.50;90.60;;;;;;5007597;28;20018;-57
2021/01/26 03:22:39;;;;;;;4.28;2.75;;;3.50;90.60;;;;;;5007540;28;20034;-56
2021/01/26 03:25:05;;;;;;;4.35;3.15;;;3.50;90.60;;;;;;5008912;28;20030;-56
2021/01/26 03:27:33;;;;;;;3.25;2.95;;;3.50;90.60;;;;;;5007597;28;20026;-56
2021/01/26 03:29:59;;;;;;;3.58;2.85;;;3.50;90.60;;;;;;5006974;28;20053;-57
2021/01/26 03:32:31;;;;;;;5.80;2.67;;;3.50;90.60;;;;;;5007194;28;20114;-56
2021/01/26 03:34:56;;;;;;;4.05;2.97;;;3.50;90.60;;;;;;5004045;28;20046;-55
2021/01/26 03:37:22;;;;;;;4.15;3.28;;;3.50;90.60;;;;;;5007105;28;20036;-56
2021/01/26 03:39:47;;;;;;;4.18;3.00;;;3.50;90.60;;;;;;5008948;28;20054;-56
2021/01/26 03:42:13;;;;;;;4.70;3.10;;;3.50;90.60;;;;;;5007414;28;20034;-56
2021/01/26 03:44:38;;;;;;;3.08;2.55;;;3.50;90.60;;;;;;5000792;28;20549;-56
2021/01/26 03:47:19;;;;;;;3.92;3.00;;;3.50;90.60;;;;;;5008569;28;20685;-56
2021/01/26 03:50:13;;;;;;;5.35;3.30;;;3.50;90.60;;;;;;5009020;28;20100;-56
2021/01/26 03:52:49;;;;;;;4.07;3.38;;;3.50;90.60;;;;;;5006149;28;20022;-56
2021/01/26 03:55:43;;;;;;;6.43;3.30;;;3.50;90.60;;;;;;5002185;28;20037;-57
2021/01/26 03:58:27;;;;;;;4.40;2.88;;;3.50;90.60;;;;;;5002126;28;20026;-57
2021/01/26 04:00:57;;;;;;;4.25;3.00;;;3.50;90.60;;;;;;5005550;28;20019;-56
2021/01/26 04:03:50;;;;;;;4.25;3.25;;;3.50;90.60;;;;;;5006529;28;20033;-56
2021/01/26 04:06:25;;;;;;;5.22;2.85;;;3.50;90.60;;;;;;5003526;28;20358;-56
2021/01/26 04:09:04;;;;;;;3.15;2.85;;;3.40;90.60;;;;;;5006085;28;20033;-56
2021/01/26 04:11:58;;;;;;;4.40;3.25;;;3.40;90.90;;;;;;4998398;28;20025;-57
2021/01/26 04:14:26;;;;;;;4.88;3.33;;;3.40;90.60;;;;;;5012232;28;20046;-56
2021/01/26 04:16:56;;;;;;;4.43;3.10;;;3.40;90.60;;;;;;4987411;28;20076;-56
2021/01/26 04:19:33;;;;;;;4.85;3.55;;;3.40;90.60;;;;;;5007022;28;20026;-56
2021/01/26 04:21:59;;;;;;;5.68;2.90;;;3.40;90.60;;;;;;5006319;28;20018;-56
2021/01/26 04:24:31;;;;;;;3.00;2.60;;;3.50;90.60;;;;;;5006650;28;20042;-56
2021/01/26 04:26:56;;;;;;;3.75;2.92;;;3.40;90.60;;;;;;5008701;28;20022;-57
2021/01/26 04:29:22;;;;;;;4.57;3.05;;;3.50;90.60;;;;;;5007334;28;20037;-57
2021/01/26 04:31:47;;;;;;;4.13;2.80;;;3.40;90.60;;;;;;5009211;28;20029;-57
2021/01/26 04:34:13;;;;;;;3.70;2.90;;;3.40;90.60;;;;;;5005521;28;20057;-56
2021/01/26 04:36:38;;;;;;;4.35;2.90;;;3.40;90.60;;;;;;4995971;28;20034;-56
2021/01/26 04:39:04;;;;;;;6.50;3.33;;;3.40;90.60;;;;;;5008672;28;20022;-55
2021/01/26 04:41:39;;;;;;;3.30;2.65;;;3.40;90.60;;;;;;5009355;28;20369;-56
2021/01/26 04:44:29;;;;;;;3.95;3.00;;;3.50;90.60;;;;;;5001747;28;20452;-56
2021/01/26 04:47:14;;;;;;;3.92;2.95;;;3.40;90.60;;;;;;5007382;28;20037;-56
2021/01/26 04:50:03;;;;;;;5.55;3.10;;;3.40;90.50;;;;;;5005833;28;20041;-56
2021/01/26 04:52:51;;;;;;;3.85;3.20;;;3.40;90.50;;;;;;4999102;28;20037;-57
2021/01/26 04:55:29;;;;;;;3.60;2.90;;;3.40;90.50;;;;;;5001532;28;20033;-56
2021/01/26 04:58:19;;;;;;;4.20;3.47;;;3.40;90.50;;;;;;5000943;28;20079;-56
2021/01/26 05:01:03;;;;;;;4.90;3.20;;;3.40;90.50;;;;;;5002513;28;20524;-57
2021/01/26 05:03:33;;;;;;;5.38;2.97;;;3.30;90.50;;;;;;5000066;28;20481;-56
2021/01/26 05:06:03;;;;;;;4.65;3.03;;;3.40;90.50;;;;;;5000911;28;20033;-56
2021/01/26 05:08:34;;;;;;;3.85;3.03;;;3.30;90.40;;;;;;5000264;28;20029;-57
2021/01/26 05:11:03;;;;;;;4.05;2.95;;;3.30;90.40;;;;;;5006406;28;20024;-56
2021/01/26 05:13:36;;;;;;;3.95;3.00;;;3.40;90.40;;;;;;5006254;28;20249;-57
2021/01/26 05:16:21;;;;;;;4.32;2.90;;;3.30;90.40;;;;;;5004982;28;20046;-57
2021/01/26 05:19:03;;;;;;;4.65;3.00;;;3.30;90.40;;;;;;5007216;28;20025;-57
2021/01/26 05:21:39;;;;;;;3.25;2.70;;;3.30;90.60;;;;;;5001735;28;20065;-57
2021/01/26 05:24:17;;;;;;;3.42;2.80;;;3.30;90.40;;;;;;5006723;28;20273;-56
2021/01/26 05:26:43;;;;;;;3.70;3.20;;;3.30;90.30;;;;;;5005578;28;20030;-56
2021/01/26 05:29:09;;;;;;;4.15;2.97;;;3.30;90.30;;;;;;5000164;28;20026;-57
2021/01/26 05:31:34;;;;;;;3.20;2.90;;;3.30;90.30;;;;;;5008291;28;20508;-56
2021/01/26 05:34:11;;;;;;;3.15;2.85;;;3.20;90.30;;;;;;5000870;28;20050;-57
2021/01/26 05:36:37;;;;;;;4.25;3.15;;;3.30;90.30;;;;;;5007079;28;20374;-56
2021/01/26 05:39:04;;;;;;;3.85;3.13;;;3.30;90.20;;;;;;5001984;28;20022;-56
2021/01/26 05:41:30;;;;;;;3.38;2.80;;;3.20;90.20;;;;;;4989892;28;20030;-56
2021/01/26 05:43:56;;;;;;;4.40;3.20;;;3.20;90.30;;;;;;5005436;28;20049;-56
2021/01/26 05:46:38;;;;;;;4.53;3.13;;;3.20;90.60;;;;;;5009210;28;20065;-57
2021/01/26 05:49:03;;;;;;;3.38;2.70;;;3.20;90.30;;;;;;5009659;28;20113;-56
2021/01/26 05:51:29;;;;;;;4.20;3.15;;;3.20;90.30;;;;;;5009700;28;20108;-56
2021/01/26 05:54:05;;;;;;;3.97;3.05;;;3.20;90.30;;;;;;5005143;28;20042;-56
2021/01/26 05:56:31;;;;;;;4.18;3.00;;;3.20;90.20;;;;;;5004365;28;20565;-57
2021/01/26 05:58:56;;;;;;;3.80;3.17;;;3.20;90.20;;;;;;5007733;28;20109;-56
2021/01/26 06:01:22;;;;;;;3.47;2.97;;;3.20;90.20;;;;;;5002864;28;20532;-56
2021/01/26 06:04:13;;;;;;;3.25;2.60;;;3.20;90.10;;;;;;5011342;28;20064;-56
2021/01/26 06:06:58;;;;;;;4.60;3.05;;;3.20;90.00;;;;;;5007338;28;20432;-56
2021/01/26 06:09:27;;;;;;;4.22;2.95;;;3.20;90.00;;;;;;5004360;28;20014;-57
2021/01/26 06:12:08;;;;;;;4.30;2.97;;;3.20;90.10;;;;;;5010356;28;20038;-56
2021/01/26 06:14:33;;;;;;;3.72;2.85;;;3.20;90.00;;;;;;5011205;28;20057;-57
2021/01/26 06:17:04;;;;;;;3.80;3.00;;;3.20;90.00;;;;;;5010174;28;20063;-56
2021/01/26 06:19:29;;;;;;;3.13;2.83;;;3.20;90.00;;;;;;5006511;28;20026;-56
2021/01/26 06:21:55;;;;;;;3.97;2.58;;;3.20;90.10;;;;;;5006295;28;20026;-56
2021/01/26 06:24:26;;;;;;;3.25;2.95;;;3.20;90.20;;;;;;5010892;28;20033;-56
2021/01/26 06:27:10;;;;;;;4.40;3.15;;;3.20;89.90;;;;;;5010160;28;20022;-57
2021/01/26 06:30:02;;;;;;;3.25;2.70;;;3.20;90.00;;;;;;5001680;28;20026;-58
2021/01/26 06:32:44;;;;;;;3.20;2.78;;;3.20;89.80;;;;;;5005720;28;20041;-56
2021/01/26 06:35:13;;;;;;;4.13;3.20;;;3.10;89.80;;;;;;5009472;28;20125;-60
2021/01/26 06:38:09;;;;;;;3.28;2.83;;;3.10;89.80;;;;;;5006849;28;20033;-57
2021/01/26 06:40:52;;;;;;;3.83;3.08;;;3.10;89.80;;;;;;5004886;28;20458;-56
2021/01/26 06:43:41;;;;;;;4.43;2.50;;;3.10;89.70;;;;;;5008761;28;20037;-56
2021/01/26 06:46:21;;;;;;;3.65;2.55;;;3.10;89.70;;;;;;5008737;28;20056;-56
2021/01/26 06:49:10;;;;;;;3.05;2.60;;;3.10;89.80;;;;;;5006731;28;20018;-56
2021/01/26 06:51:48;;;;;;;3.35;2.40;;;3.10;89.70;;;;;;5008952;28;20416;-57
2021/01/26 06:54:39;;;;;;;3.97;2.80;;;3.10;89.70;;;;;;5007622;28;20118;-56
2021/01/26 06:57:29;;;;;;;4.40;2.78;;;3.10;89.70;;;;;;5004192;28;20109;-57
2021/01/26 07:00:07;;;;;;;3.33;2.83;;;3.10;89.60;;;;;;5008308;28;20053;-56
2021/01/26 07:03:07;;;;;;;3.83;2.65;;;3.10;89.70;;;;;;5001829;28;20068;-56
2021/01/26 07:05:49;;;;;;;3.67;2.92;;;3.10;89.80;;;;;;4998329;28;20030;-56
2021/01/26 07:08:43;;;;;;;2.78;2.40;;;3.10;89.80;;;;;;5009860;28;20022;-56
2021/01/26 07:11:32;;;;;;;3.53;2.78;;;3.10;89.80;;;;;;5006908;28;20045;-57
2021/01/26 07:14:02;;;;;;;4.75;3.22;;;3.10;89.80;;;;;;5003936;28;20373;-56
2021/01/26 07:16:41;;;;;;;3.97;2.95;;;3.10;89.80;;;;;;5006779;28;20025;-56
2021/01/26 07:19:29;;;;;;;4.15;2.70;;;3.10;89.80;;;;;;5007627;28;20029;-56
2021/01/26 07:22:13;;;;;;;3.42;2.60;;;3.10;89.80;;;;;;5004847;28;20193;-57
2021/01/26 07:24:57;;;;;;;3.65;2.53;;;3.00;89.80;;;;;;5007121;28;20018;-56
2021/01/26 07:27:48;;;;;;;4.47;3.03;;;3.10;89.80;;;;;;5005229;28;20313;-56
2021/01/26 07:30:22;;;;;;;3.65;2.78;;;3.10;89.80;;;;;;5009945;28;20040;-57
2021/01/26 07:32:47;;;;;;;3.25;2.72;;;3.10;89.80;;;;;;5006713;28;20025;-56
2021/01/26 07:35:31;;;;;;;2.95;2.60;;;3.10;89.80;;;;;;5009143;28;20565;-56
2021/01/26 07:38:17;;;;;;;2.97;2.35;;;3.10;89.80;;;;;;5005390;28;20061;-56
2021/01/26 07:40:53;;;;;;;3.33;2.63;;;3.10;89.80;;;;;;5006561;28;20419;-55
2021/01/26 07:43:36;;;;;;;3.63;2.85;;;3.10;89.60;;;;;;5008247;28;20022;-56
2021/01/26 07:46:08;;;;;;;4.32;2.75;;;3.10;89.60;;;;;;5012193;28;20029;-55
2021/01/26 07:48:50;;;;;;;4.18;2.65;;;3.10;89.50;;;;;;5007346;28;20060;-55
2021/01/26 07:51:20;;;;;;;3.35;2.78;;;3.10;89.60;;;;;;5006249;28;20198;-57
2021/01/26 07:54:25;;;;;;;3.05;2.55;;;3.10;89.50;;;;;;5003721;28;20022;-56
2021/01/26 07:56:51;;;;;;;3.88;2.75;;;3.10;89.50;;;;;;4988922;28;20026;-56
2021/01/26 07:59:21;;;;;;;3.60;2.83;;;3.10;89.40;;;;;;5009746;28;20474;-56
2021/01/26 08:01:49;;;;;;;3.28;2.58;;;3.10;89.30;;;;;;5006963;28;20034;-56
2021/01/26 08:04:14;;;;;;;3.72;3.10;;;3.10;89.30;;;;;;5004702;28;20045;-57
2021/01/26 08:06:44;;;;;;;3.65;2.50;;;3.20;89.30;;;;;;4987243;28;20112;-57
2021/01/26 08:09:11;;;;;;;3.45;2.60;;;3.20;89.20;;;;;;5008314;28;20544;-56
2021/01/26 08:11:48;;;;;;;3.38;2.67;;;3.10;89.00;;;;;;5007010;28;20088;-56
2021/01/26 08:14:14;;;;;;;4.28;2.50;;;3.20;88.80;;;;;;5007223;28;20033;-56
2021/01/26 08:16:44;;;;;;;3.22;2.92;;;3.10;88.60;;;;;;5001729;28;20018;-56
2021/01/26 08:19:19;;;;;;;3.85;2.90;;;3.10;88.20;;;;;;5001217;28;20402;-57
2021/01/26 08:21:46;;;;;;;3.47;2.80;;;3.10;87.80;;;;;;5001086;28;20064;-56
2021/01/26 08:24:20;;;;;;;4.38;2.67;;;3.20;87.60;;;;;;4998338;28;20057;-56
2021/01/26 08:26:46;;;;;;;3.25;2.50;;;3.10;87.40;;;;;;5005291;28;20041;-57
2021/01/26 08:29:11;;;;;;;3.97;3.03;;;3.10;87.00;;;;;;5006907;28;20041;-56
2021/01/26 08:31:38;;;;;;;3.42;2.80;;;3.10;87.00;;;;;;4995609;28;20041;-57
2021/01/26 08:34:24;;;;;;;3.35;2.70;;;3.10;87.00;;;;;;5001549;28;20141;-56
2021/01/26 08:37:08;;;;;;;3.63;2.78;;;3.10;86.60;;;;;;5004641;28;20042;-57
2021/01/26 08:39:43;;;;;;;3.10;2.60;;;3.10;86.50;;;;;;5007177;28;20038;-56
2021/01/26 08:42:08;;;;;;;4.53;3.00;;;3.10;86.30;;;;;;5000589;28;20499;-58
2021/01/26 08:44:34;;;;;;;3.65;2.95;;;3.10;86.10;;;;;;5001224;28;20038;-57
2021/01/26 08:46:59;;;;;;;4.32;3.00;;;3.10;85.90;;;;;;5001954;28;20030;-56
2021/01/26 08:49:34;;;;;;;4.07;3.03;;;3.20;86.00;;;;;;4972103;28;20121;-57
2021/01/26 08:52:25;;;;;;;3.13;2.55;;;3.10;85.70;;;;;;5001296;28;20026;-56
2021/01/26 08:54:52;;;;;;;3.40;2.55;;;3.10;85.50;;;;;;4991693;28;20506;-57
2021/01/26 08:57:27;;;;;;;4.57;2.70;;;3.20;85.50;;;;;;4991113;28;20033;-56
2021/01/26 09:00:17;;;;;;;3.20;2.55;;;3.20;85.30;;;;;;4994582;28;20022;-56
2021/01/26 09:02:46;;;;;;;3.50;2.95;;;3.20;85.20;;;;;;5000780;28;20377;-56
2021/01/26 09:05:12;;;;;;;3.63;2.60;;;3.20;85.00;;;;;;4990973;28;20069;-57
2021/01/26 09:07:54;;;;;;;3.67;2.95;;;3.20;85.00;;;;;;4998143;28;20038;-56
2021/01/26 09:10:23;;;;;;;2.53;2.28;;;3.10;84.90;;;;;;4993681;28;20042;-56
2021/01/26 09:12:49;;;;;;;5.95;2.85;;;3.20;84.70;;;;;;5001064;28;20449;-57
2021/01/26 09:15:14;;;;;;;3.30;2.83;;;3.20;84.60;;;;;;4981796;28;20026;-56
2021/01/26 09:17:40;;;;;;;5.85;3.30;;;3.20;84.50;;;;;;5007484;28;20557;-56
2021/01/26 09:20:17;;;;;;;3.72;3.00;;;3.20;84.70;;;;;;5002393;28;20491;-57
2021/01/26 09:22:43;;;;;;;3.25;2.65;;;3.20;84.50;;;;;;5005272;28;20026;-57
2021/01/26 09:25:23;;;;;;;5.20;3.00;;;3.20;84.20;;;;;;5002445;28;20393;-57
2021/01/26 09:28:00;;;;;;;4.10;3.17;;;3.20;84.20;;;;;;5003779;28;20022;-57
2021/01/26 09:30:26;;;;;;;3.45;2.63;;;3.20;84.00;;;;;;5000735;28;20038;-57
2021/01/26 09:32:54;;;;;;;3.50;2.50;;;3.20;84.10;;;;;;5002631;28;20446;-56
2021/01/26 09:35:20;;;;;;;5.55;3.60;;;3.30;84.10;;;;;;4998165;28;20861;-56
2021/01/26 09:37:45;;;;;;;6.68;3.20;;;3.20;83.90;;;;;;5000322;28;20046;-56
2021/01/26 09:40:12;;;;;;;3.55;3.13;;;3.20;84.00;;;;;;5004299;28;20470;-57
2021/01/26 09:42:38;;;;;;;4.10;3.00;;;3.20;84.00;;;;;;4995145;28;20034;-56
2021/01/26 09:45:06;;;;;;;3.97;3.50;;;3.20;83.90;;;;;;5000724;28;20032;-57
2021/01/26 09:47:32;;;;;;;4.00;2.90;;;3.30;84.00;;;;;;4999496;28;20565;-57
2021/01/26 09:50:05;;;;;;;9.50;3.55;;;3.30;84.10;;;;;;4999497;28;20097;-57
2021/01/26 09:52:30;;;;;;;2.97;2.63;;;3.30;84.20;;;;;;5000571;28;20452;-56
2021/01/26 09:55:08;;;;;;;6.88;3.55;;;3.30;84.20;;;;;;4997015;28;20114;-56
2021/01/26 09:57:34;;;;;;;5.00;3.03;;;3.30;84.40;;;;;;5006208;28;20034;-57
2021/01/26 09:59:59;;;;;;;7.35;3.80;;;3.30;84.40;;;;;;4995783;28;20041;-57
2021/01/26 10:02:25;;;;;;;9.80;3.10;;;3.30;84.50;;;;;;4999695;28;20038;-58
2021/01/26 10:04:50;;;;;;;8.73;3.55;;;3.40;84.70;;;;;;4996533;28;20048;-56
2021/01/26 10:07:18;;;;;;;11.73;3.17;;;3.40;84.60;;;;;;4993185;28;20114;-57
2021/01/26 10:09:44;;;;;;;7.18;3.13;;;3.40;84.50;;;;;;5003736;28;20622;-58
2021/01/26 10:12:28;;;;;;;7.93;3.65;;;3.40;84.40;;;;;;5002189;28;20022;-56
2021/01/26 10:15:20;;;;;;;8.55;3.70;;;3.50;84.50;;;;;;4997687;28;20508;-56
2021/01/26 10:18:04;;;;;;;9.00;3.50;;;3.40;84.50;;;;;;5003566;28;20057;-58
2021/01/26 10:20:35;;;;;;;8.63;3.40;;;3.50;84.50;;;;;;4999818;28;20060;-56
2021/01/26 10:23:02;;;;;;;7.60;3.70;;;3.50;84.50;;;;;;5001367;28;20026;-56
2021/01/26 10:25:27;;;;;;;19.77;4.18;;;3.50;84.60;;;;;;5006861;28;20022;-55
2021/01/26 10:27:53;;;;;;;15.30;3.38;;;3.50;84.60;;;;;;4995648;28;20062;-56
2021/01/26 10:30:26;;;;;;;20.08;3.83;;;3.60;84.70;;;;;;5001728;28;20421;-56
2021/01/26 10:32:51;;;;;;;18.73;4.10;;;3.60;84.80;;;;;;5006033;28;20038;-56
2021/01/26 10:35:34;;;;;;;12.80;4.13;;;3.60;84.70;;;;;;5006967;28;20046;-56
2021/01/26 10:38:29;;;;;;;18.35;3.97;;;3.60;84.70;;;;;;4999624;28;20049;-57
2021/01/26 10:41:04;;;;;;;17.55;3.80;;;3.60;84.60;;;;;;4997173;28;20025;-56
2021/01/26 10:43:30;;;;;;;19.85;3.95;;;3.60;84.60;;;;;;4994556;28;20049;-57
2021/01/26 10:45:56;;;;;;;12.18;3.75;;;3.70;84.60;;;;;;5002003;28;20049;-56
2021/01/26 10:48:35;;;;;;;21.90;5.63;;;3.70;84.70;;;;;;4999853;28;20026;-56
2021/01/26 10:51:13;;;;;;;35.15;4.72;;;3.70;84.60;;;;;;4998888;28;20086;-57
2021/01/26 10:53:44;;;;;;;21.75;5.40;;;3.70;84.60;;;;;;5000662;28;20033;-56
2021/01/26 10:56:10;;;;;;;18.38;3.70;;;3.80;84.60;;;;;;4998229;28;20034;-57
2021/01/26 10:58:35;;;;;;;10.77;3.50;;;3.80;84.50;;;;;;5005332;28;20033;-57
2021/01/26 11:01:01;;;;;;;14.65;3.28;;;3.80;84.60;;;;;;5003879;28;20038;-57
2021/01/26 11:03:27;;;;;;;12.48;3.60;;;3.80;85.00;;;;;;5000930;28;20477;-57
2021/01/26 11:05:52;;;;;;;20.98;3.55;;;3.80;84.40;;;;;;5002599;28;20026;-57
2021/01/26 11:08:18;;;;;;;18.67;3.80;;;3.80;84.50;;;;;;4997215;28;20343;-57
2021/01/26 11:10:43;;;;;;;24.58;4.68;;;3.80;84.40;;;;;;5000528;28;20034;-57
2021/01/26 11:13:09;;;;;;;18.13;3.92;;;3.80;84.50;;;;;;5006232;28;20025;-55
2021/01/26 11:15:35;;;;;;;14.32;3.78;;;3.80;84.20;;;;;;4996901;28;20030;-56
2021/01/26 11:18:00;;;;;;;22.95;3.78;;;3.80;84.10;;;;;;5005490;28;20050;-57
2021/01/26 11:20:26;;;;;;;14.55;4.28;;;3.80;84.10;;;;;;5001832;28;20061;-56
2021/01/26 11:22:51;;;;;;;22.60;4.10;;;3.90;84.20;;;;;;5007715;28;20026;-56
2021/01/26 11:25:17;;;;;;;25.08;4.20;;;3.90;84.30;;;;;;4999835;28;20034;-56
2021/01/26 11:27:42;;;;;;;19.73;4.65;;;3.90;84.30;;;;;;5004763;28;20084;-56
2021/01/26 11:30:14;;;;;;;21.67;4.00;;;3.90;84.40;;;;;;5007568;28;20041;-56
2021/01/26 11:32:40;;;;;;;25.38;4.82;;;3.90;84.50;;;;;;4998064;28;20042;-57
2021/01/26 11:35:06;;;;;;;33.20;4.55;;;3.90;84.10;;;;;;4995655;28;20038;-57
2021/01/26 11:37:32;;;;;;;19.83;5.07;;;3.90;84.10;;;;;;5001141;28;20382;-56
2021/01/26 11:39:57;;;;;;;29.15;4.93;;;3.90;84.00;;;;;;4997698;28;20037;-56
2021/01/26 11:42:23;;;;;;;21.85;4.45;;;4.00;83.90;;;;;;5002037;28;20038;-57
2021/01/26 11:44:48;;;;;;;28.65;5.57;;;4.00;83.70;;;;;;5004875;28;20340;-56
2021/01/26 11:47:14;;;;;;;39.97;5.20;;;4.00;83.80;;;;;;4995282;28;20068;-57
2021/01/26 11:49:39;;;;;;;18.38;4.30;;;4.00;83.60;;;;;;5007794;28;20094;-57
2021/01/26 11:52:05;;;;;;;29.63;4.93;;;4.00;83.70;;;;;;4996325;28;20076;-57
2021/01/26 11:54:30;;;;;;;21.42;4.40;;;4.00;83.80;;;;;;5003392;28;20109;-56
2021/01/26 11:56:56;;;;;;;24.30;3.90;;;4.00;83.70;;;;;;4997686;28;20144;-57
2021/01/26 11:59:21;;;;;;;25.00;4.22;;;4.00;83.60;;;;;;4998914;28;20069;-57
2021/01/26 12:01:47;;;;;;;24.77;4.90;;;4.00;83.50;;;;;;5001087;28;20458;-57
2021/01/26 12:04:13;;;;;;;22.85;4.03;;;4.00;83.30;;;;;;5003241;28;20036;-57
2021/01/26 12:06:38;;;;;;;14.77;4.05;;;4.00;83.40;;;;;;5008410;28;20799;-57
2021/01/26 12:09:04;;;;;;;19.05;4.40;;;4.00;83.20;;;;;;5004121;28;20793;-57
2021/01/26 12:11:29;;;;;;;24.63;4.18;;;4.00;83.20;;;;;;5006649;28;20034;-57
2021/01/26 12:13:55;;;;;;;16.08;4.28;;;4.00;83.30;;;;;;4999947;28;20125;-56
2021/01/26 12:16:21;;;;;;;24.20;5.10;;;4.00;83.20;;;;;;4997450;28;20113;-57
2021/01/26 12:18:47;;;;;;;25.67;4.75;;;4.10;83.30;;;;;;5006439;28;20028;-56
2021/01/26 12:21:13;;;;;;;17.48;4.25;;;4.10;83.20;;;;;;4999367;28;20018;-56
2021/01/26 12:23:38;;;;;;;14.98;4.05;;;4.00;83.10;;;;;;5000236;28;20029;-57
2021/01/26 12:26:07;;;;;;;14.48;4.10;;;4.10;83.20;;;;;;5001008;28;20119;-56
2021/01/26 12:28:33;;;;;;;21.15;4.40;;;4.10;83.10;;;;;;4995680;28;20034;-56
2021/01/26 12:30:58;;;;;;;14.00;4.07;;;4.10;83.10;;;;;;4995740;28;20032;-56
2021/01/26 12:33:24;;;;;;;10.52;3.63;;;4.10;83.10;;;;;;4998809;28;20406;-57
2021/01/26 12:35:49;;;;;;;8.32;3.63;;;4.10;83.00;;;;;;5001645;28;20023;-57
2021/01/26 12:38:15;;;;;;;14.18;3.58;;;4.20;83.10;;;;;;5001153;28;20035;-57
2021/01/26 12:40:42;;;;;;;10.25;3.40;;;4.20;82.90;;;;;;5004392;28;20025;-57
2021/01/26 12:43:08;;;;;;;15.98;3.90;;;4.20;82.80;;;;;;5006138;28;20115;-56
2021/01/26 12:45:34;;;;;;;18.25;4.00;;;4.10;82.80;;;;;;4985581;28;20073;-56
2021/01/26 12:48:00;;;;;;;15.13;4.05;;;4.20;82.80;;;;;;4992183;28;20026;-56
2021/01/26 12:50:29;;;;;;;16.33;3.60;;;4.20;82.70;;;;;;4998417;28;20037;-56
2021/01/26 12:52:54;;;;;;;16.40;3.60;;;4.20;82.80;;;;;;5002762;28;20060;-57
2021/01/26 12:55:20;;;;;;;12.45;3.90;;;4.20;82.80;;;;;;5006988;28;20428;-57
2021/01/26 12:57:45;;;;;;;13.48;3.70;;;4.20;82.70;;;;;;5010084;28;20485;-56
2021/01/26 13:00:13;;;;;;;18.10;3.42;;;4.20;82.60;;;;;;5006537;28;20042;-57
2021/01/26 13:02:38;;;;;;;7.03;2.97;;;4.20;82.50;;;;;;5009360;28;20029;-58
2021/01/26 13:05:07;;;;;;;10.00;3.50;;;4.20;82.50;;;;;;5003730;28;20153;-56
2021/01/26 13:07:33;;;;;;;13.85;3.17;;;4.20;82.40;;;;;;5001935;28;20022;-56
2021/01/26 13:09:58;;;;;;;8.68;3.05;;;4.30;82.50;;;;;;5008946;28;20492;-56
2021/01/26 13:12:24;;;;;;;9.20;3.33;;;4.30;82.40;;;;;;5000116;28;20557;-56
2021/01/26 13:14:49;;;;;;;8.20;3.45;;;4.30;82.30;;;;;;5001251;28;20526;-56
2021/01/26 13:17:15;;;;;;;9.75;3.53;;;4.40;82.30;;;;;;5007411;28;20030;-57
2021/01/26 13:19:41;;;;;;;10.23;4.15;;;4.30;82.10;;;;;;5001901;28;20014;-56